sensor_id;sensor_type;location;lat;lon;timestamp;P1;durP1;ratioP1;P2;durP2;ratioP2
7501;SDS011;3792;47.740;7.606;2022-08-03T00:00:58;2.13;;;1.93;;
7501;SDS011;3792;47.740;7.606;2022-08-03T00:03:25;3.03;;;1.70;;
7501;SDS011;3792;47.740;7.606;2022-08-03T00:05:52;3.80;;;1.93;;
7501;SDS011;3792;47.740;7.606;2022-08-03T00:08:19;2.27;;;1.53;;
7501;SDS011;3792;47.740;7.606;2022-08-03T00:10:46;1.90;;;1.80;;
7501;SDS011;3792;47.740;7.606;2022-08-03T00:13:15;1.73;;;1.63;;
7501;SDS011;3792;47.740;7.606;2022-08-03T00:15:43;2.23;;;1.70;;
7501;SDS011;3792;47.740;7.606;2022-08-03T00:18:10;3.97;;;1.80;;
7501;SDS011;3792;47.740;7.606;2022-08-03T00:20:38;1.70;;;1.60;;
7501;SDS011;3792;47.740;7.606;2022-08-03T00:23:05;1.50;;;1.40;;
7501;SDS011;3792;47.740;7.606;2022-08-03T00:25:32;1.77;;;1.67;;
7501;SDS011;3792;47.740;7.606;2022-08-03T00:28:00;1.80;;;1.70;;
7501;SDS011;3792;47.740;7.606;2022-08-03T00:30:28;1.63;;;1.50;;
7501;SDS011;3792;47.740;7.606;2022-08-03T00:32:56;1.83;;;1.73;;
7501;SDS011;3792;47.740;7.606;2022-08-03T00:35:23;1.53;;;1.43;;
7501;SDS011;3792;47.740;7.606;2022-08-03T00:37:50;1.60;;;1.50;;
7501;SDS011;3792;47.740;7.606;2022-08-03T00:40:18;3.20;;;1.73;;
7501;SDS011;3792;47.740;7.606;2022-08-03T00:42:46;2.40;;;1.60;;
7501;SDS011;3792;47.740;7.606;2022-08-03T00:45:15;1.20;;;1.10;;
7501;SDS011;3792;47.740;7.606;2022-08-03T00:47:44;1.60;;;1.50;;
7501;SDS011;3792;47.740;7.606;2022-08-03T00:50:11;1.40;;;1.40;;
7501;SDS011;3792;47.740;7.606;2022-08-03T00:52:39;1.80;;;1.57;;
7501;SDS011;3792;47.740;7.606;2022-08-03T00:55:06;1.60;;;1.50;;
7501;SDS011;3792;47.740;7.606;2022-08-03T00:57:34;1.90;;;1.43;;
7501;SDS011;3792;47.740;7.606;2022-08-03T01:00:02;1.87;;;1.77;;
7501;SDS011;3792;47.740;7.606;2022-08-03T01:02:31;1.57;;;1.40;;
7501;SDS011;3792;47.740;7.606;2022-08-03T01:04:59;1.80;;;1.50;;
7501;SDS011;3792;47.740;7.606;2022-08-03T01:07:29;2.70;;;1.20;;
7501;SDS011;3792;47.740;7.606;2022-08-03T01:10:09;1.60;;;1.50;;
7501;SDS011;3792;47.740;7.606;2022-08-03T01:12:42;1.57;;;1.47;;
7501;SDS011;3792;47.740;7.606;2022-08-03T01:15:14;1.93;;;1.63;;
7501;SDS011;3792;47.740;7.606;2022-08-03T01:17:50;1.57;;;1.40;;
7501;SDS011;3792;47.740;7.606;2022-08-03T01:20:24;1.60;;;1.50;;
7501;SDS011;3792;47.740;7.606;2022-08-03T01:25:50;1.70;;;1.60;;
7501;SDS011;3792;47.740;7.606;2022-08-03T01:28:38;3.60;;;1.83;;
7501;SDS011;3792;47.740;7.606;2022-08-03T01:31:25;1.90;;;1.70;;
7501;SDS011;3792;47.740;7.606;2022-08-03T01:33:55;1.63;;;1.47;;
7501;SDS011;3792;47.740;7.606;2022-08-03T01:36:28;1.73;;;1.63;;
7501;SDS011;3792;47.740;7.606;2022-08-03T01:39:00;2.60;;;1.80;;
7501;SDS011;3792;47.740;7.606;2022-08-03T01:41:30;1.70;;;1.60;;
7501;SDS011;3792;47.740;7.606;2022-08-03T01:44:00;2.47;;;1.70;;
7501;SDS011;3792;47.740;7.606;2022-08-03T01:46:29;2.33;;;1.53;;
7501;SDS011;3792;47.740;7.606;2022-08-03T01:48:57;1.77;;;1.67;;
7501;SDS011;3792;47.740;7.606;2022-08-03T01:51:25;2.17;;;1.80;;
7501;SDS011;3792;47.740;7.606;2022-08-03T01:53:56;3.33;;;1.20;;
7501;SDS011;3792;47.740;7.606;2022-08-03T01:56:25;1.70;;;1.60;;
7501;SDS011;3792;47.740;7.606;2022-08-03T01:58:54;1.77;;;1.67;;
7501;SDS011;3792;47.740;7.606;2022-08-03T02:01:24;1.60;;;1.43;;
7501;SDS011;3792;47.740;7.606;2022-08-03T02:03:53;1.90;;;1.80;;
7501;SDS011;3792;47.740;7.606;2022-08-03T02:06:24;1.60;;;1.50;;
7501;SDS011;3792;47.740;7.606;2022-08-03T02:08:52;1.73;;;1.63;;
7501;SDS011;3792;47.740;7.606;2022-08-03T02:11:21;1.50;;;1.40;;
7501;SDS011;3792;47.740;7.606;2022-08-03T02:13:48;1.70;;;1.60;;
7501;SDS011;3792;47.740;7.606;2022-08-03T02:16:17;1.73;;;1.63;;
7501;SDS011;3792;47.740;7.606;2022-08-03T02:18:47;2.13;;;1.90;;
7501;SDS011;3792;47.740;7.606;2022-08-03T02:21:15;2.10;;;1.83;;
7501;SDS011;3792;47.740;7.606;2022-08-03T02:23:43;1.70;;;1.60;;
7501;SDS011;3792;47.740;7.606;2022-08-03T02:26:11;1.80;;;1.50;;
7501;SDS011;3792;47.740;7.606;2022-08-03T02:28:44;1.90;;;1.60;;
7501;SDS011;3792;47.740;7.606;2022-08-03T02:31:14;2.00;;;1.60;;
7501;SDS011;3792;47.740;7.606;2022-08-03T02:33:46;2.10;;;1.67;;
7501;SDS011;3792;47.740;7.606;2022-08-03T02:36:17;2.23;;;2.03;;
7501;SDS011;3792;47.740;7.606;2022-08-03T02:38:48;3.03;;;1.60;;
7501;SDS011;3792;47.740;7.606;2022-08-03T02:41:20;1.80;;;1.70;;
7501;SDS011;3792;47.740;7.606;2022-08-03T02:43:50;1.80;;;1.70;;
7501;SDS011;3792;47.740;7.606;2022-08-03T02:46:21;1.80;;;1.50;;
7501;SDS011;3792;47.740;7.606;2022-08-03T02:48:52;2.50;;;1.80;;
7501;SDS011;3792;47.740;7.606;2022-08-03T02:51:22;2.00;;;1.80;;
7501;SDS011;3792;47.740;7.606;2022-08-03T02:53:51;2.07;;;1.63;;
7501;SDS011;3792;47.740;7.606;2022-08-03T02:56:20;1.73;;;1.63;;
7501;SDS011;3792;47.740;7.606;2022-08-03T02:58:49;2.17;;;2.00;;
7501;SDS011;3792;47.740;7.606;2022-08-03T03:01:18;1.80;;;1.70;;
7501;SDS011;3792;47.740;7.606;2022-08-03T03:03:47;1.73;;;1.63;;
7501;SDS011;3792;47.740;7.606;2022-08-03T03:06:16;3.53;;;2.03;;
7501;SDS011;3792;47.740;7.606;2022-08-03T03:08:45;3.20;;;2.07;;
7501;SDS011;3792;47.740;7.606;2022-08-03T03:11:14;1.80;;;1.70;;
7501;SDS011;3792;47.740;7.606;2022-08-03T03:13:44;1.70;;;1.60;;
7501;SDS011;3792;47.740;7.606;2022-08-03T03:16:14;3.20;;;1.90;;
7501;SDS011;3792;47.740;7.606;2022-08-03T03:18:42;1.87;;;1.70;;
7501;SDS011;3792;47.740;7.606;2022-08-03T03:21:10;2.03;;;1.93;;
7501;SDS011;3792;47.740;7.606;2022-08-03T03:23:39;1.70;;;1.60;;
7501;SDS011;3792;47.740;7.606;2022-08-03T03:26:08;2.43;;;1.87;;
7501;SDS011;3792;47.740;7.606;2022-08-03T03:28:38;2.03;;;1.93;;
7501;SDS011;3792;47.740;7.606;2022-08-03T03:31:06;2.10;;;1.90;;
7501;SDS011;3792;47.740;7.606;2022-08-03T03:33:34;1.67;;;1.57;;
7501;SDS011;3792;47.740;7.606;2022-08-03T03:36:02;2.63;;;1.90;;
7501;SDS011;3792;47.740;7.606;2022-08-03T03:38:31;2.73;;;2.00;;
7501;SDS011;3792;47.740;7.606;2022-08-03T03:40:58;2.50;;;2.30;;
7501;SDS011;3792;47.740;7.606;2022-08-03T03:43:27;2.70;;;2.00;;
7501;SDS011;3792;47.740;7.606;2022-08-03T03:45:54;2.37;;;2.00;;
7501;SDS011;3792;47.740;7.606;2022-08-03T03:48:23;2.10;;;1.90;;
7501;SDS011;3792;47.740;7.606;2022-08-03T03:50:51;1.97;;;1.87;;
7501;SDS011;3792;47.740;7.606;2022-08-03T03:53:18;2.20;;;1.80;;
7501;SDS011;3792;47.740;7.606;2022-08-03T03:55:45;1.70;;;1.60;;
7501;SDS011;3792;47.740;7.606;2022-08-03T03:58:13;2.10;;;1.90;;
7501;SDS011;3792;47.740;7.606;2022-08-03T04:00:42;2.40;;;1.83;;
7501;SDS011;3792;47.740;7.606;2022-08-03T04:03:09;3.20;;;2.00;;
7501;SDS011;3792;47.740;7.606;2022-08-03T04:05:37;5.23;;;1.70;;
7501;SDS011;3792;47.740;7.606;2022-08-03T04:08:22;2.90;;;2.00;;
7501;SDS011;3792;47.740;7.606;2022-08-03T04:11:09;1.80;;;1.70;;
7501;SDS011;3792;47.740;7.606;2022-08-03T04:13:43;2.20;;;2.03;;
7501;SDS011;3792;47.740;7.606;2022-08-03T04:16:17;2.00;;;1.90;;
7501;SDS011;3792;47.740;7.606;2022-08-03T04:18:48;2.20;;;2.10;;
7501;SDS011;3792;47.740;7.606;2022-08-03T04:21:19;2.20;;;2.00;;
7501;SDS011;3792;47.740;7.606;2022-08-03T04:23:49;2.90;;;2.60;;
7501;SDS011;3792;47.740;7.606;2022-08-03T04:26:19;4.03;;;2.70;;
7501;SDS011;3792;47.740;7.606;2022-08-03T04:28:49;2.67;;;2.23;;
7501;SDS011;3792;47.740;7.606;2022-08-03T04:31:21;2.43;;;2.17;;
7501;SDS011;3792;47.740;7.606;2022-08-03T04:33:50;2.53;;;2.23;;
7501;SDS011;3792;47.740;7.606;2022-08-03T04:36:19;2.33;;;2.20;;
7501;SDS011;3792;47.740;7.606;2022-08-03T04:38:52;2.80;;;2.10;;
7501;SDS011;3792;47.740;7.606;2022-08-03T04:41:23;2.17;;;1.97;;
7501;SDS011;3792;47.740;7.606;2022-08-03T04:43:53;2.70;;;2.40;;
7501;SDS011;3792;47.740;7.606;2022-08-03T04:46:25;2.30;;;2.10;;
7501;SDS011;3792;47.740;7.606;2022-08-03T04:48:54;2.50;;;2.30;;
7501;SDS011;3792;47.740;7.606;2022-08-03T04:51:21;2.33;;;2.13;;
7501;SDS011;3792;47.740;7.606;2022-08-03T04:53:49;2.60;;;2.00;;
7501;SDS011;3792;47.740;7.606;2022-08-03T04:56:16;2.93;;;2.07;;
7501;SDS011;3792;47.740;7.606;2022-08-03T04:58:43;5.37;;;2.33;;
7501;SDS011;3792;47.740;7.606;2022-08-03T05:01:10;2.43;;;2.23;;
7501;SDS011;3792;47.740;7.606;2022-08-03T05:03:38;2.73;;;2.53;;
7501;SDS011;3792;47.740;7.606;2022-08-03T05:06:06;2.43;;;2.10;;
7501;SDS011;3792;47.740;7.606;2022-08-03T05:08:34;2.50;;;2.10;;
7501;SDS011;3792;47.740;7.606;2022-08-03T05:11:01;4.50;;;2.43;;
7501;SDS011;3792;47.740;7.606;2022-08-03T05:13:28;3.83;;;2.27;;
7501;SDS011;3792;47.740;7.606;2022-08-03T05:15:55;2.60;;;2.40;;
7501;SDS011;3792;47.740;7.606;2022-08-03T05:18:22;2.53;;;2.13;;
7501;SDS011;3792;47.740;7.606;2022-08-03T05:20:50;3.07;;;2.40;;
7501;SDS011;3792;47.740;7.606;2022-08-03T05:23:17;6.33;;;2.70;;
7501;SDS011;3792;47.740;7.606;2022-08-03T05:25:44;4.40;;;2.70;;
7501;SDS011;3792;47.740;7.606;2022-08-03T05:28:11;4.27;;;2.40;;
7501;SDS011;3792;47.740;7.606;2022-08-03T05:30:38;2.87;;;2.30;;
7501;SDS011;3792;47.740;7.606;2022-08-03T05:33:06;2.47;;;2.27;;
7501;SDS011;3792;47.740;7.606;2022-08-03T05:35:33;3.97;;;2.37;;
7501;SDS011;3792;47.740;7.606;2022-08-03T05:38:02;3.90;;;2.13;;
7501;SDS011;3792;47.740;7.606;2022-08-03T05:40:29;4.83;;;2.57;;
7501;SDS011;3792;47.740;7.606;2022-08-03T05:42:56;2.60;;;2.40;;
7501;SDS011;3792;47.740;7.606;2022-08-03T05:45:24;3.03;;;2.83;;
7501;SDS011;3792;47.740;7.606;2022-08-03T05:47:51;3.30;;;2.83;;
7501;SDS011;3792;47.740;7.606;2022-08-03T05:50:18;3.10;;;2.80;;
7501;SDS011;3792;47.740;7.606;2022-08-03T05:52:46;3.93;;;2.50;;
7501;SDS011;3792;47.740;7.606;2022-08-03T05:55:14;3.90;;;2.40;;
7501;SDS011;3792;47.740;7.606;2022-08-03T05:57:41;5.23;;;2.40;;
7501;SDS011;3792;47.740;7.606;2022-08-03T06:00:11;2.90;;;2.17;;
7501;SDS011;3792;47.740;7.606;2022-08-03T06:02:38;2.37;;;2.03;;
7501;SDS011;3792;47.740;7.606;2022-08-03T06:05:06;3.10;;;2.00;;
7501;SDS011;3792;47.740;7.606;2022-08-03T06:07:34;3.10;;;2.10;;
7501;SDS011;3792;47.740;7.606;2022-08-03T06:10:01;2.00;;;1.87;;
7501;SDS011;3792;47.740;7.606;2022-08-03T06:12:30;2.23;;;1.87;;
7501;SDS011;3792;47.740;7.606;2022-08-03T06:15:00;2.00;;;1.90;;
7501;SDS011;3792;47.740;7.606;2022-08-03T06:17:28;4.70;;;1.90;;
7501;SDS011;3792;47.740;7.606;2022-08-03T06:19:55;4.30;;;2.00;;
7501;SDS011;3792;47.740;7.606;2022-08-03T06:22:22;2.37;;;1.90;;
7501;SDS011;3792;47.740;7.606;2022-08-03T06:24:49;1.87;;;1.77;;
7501;SDS011;3792;47.740;7.606;2022-08-03T06:27:16;2.07;;;1.97;;
7501;SDS011;3792;47.740;7.606;2022-08-03T06:29:46;1.77;;;1.67;;
7501;SDS011;3792;47.740;7.606;2022-08-03T06:32:13;5.83;;;2.47;;
7501;SDS011;3792;47.740;7.606;2022-08-03T06:34:40;1.90;;;1.80;;
7501;SDS011;3792;47.740;7.606;2022-08-03T06:37:07;2.13;;;2.00;;
7501;SDS011;3792;47.740;7.606;2022-08-03T06:39:36;2.03;;;1.93;;
7501;SDS011;3792;47.740;7.606;2022-08-03T06:42:03;2.93;;;2.10;;
7501;SDS011;3792;47.740;7.606;2022-08-03T06:44:30;2.27;;;2.10;;
7501;SDS011;3792;47.740;7.606;2022-08-03T06:46:58;2.13;;;2.03;;
7501;SDS011;3792;47.740;7.606;2022-08-03T06:49:25;2.40;;;1.90;;
7501;SDS011;3792;47.740;7.606;2022-08-03T06:51:53;4.50;;;2.40;;
7501;SDS011;3792;47.740;7.606;2022-08-03T06:54:20;4.43;;;3.63;;
7501;SDS011;3792;47.740;7.606;2022-08-03T06:56:48;4.13;;;3.73;;
7501;SDS011;3792;47.740;7.606;2022-08-03T06:59:15;5.00;;;3.40;;
7501;SDS011;3792;47.740;7.606;2022-08-03T07:01:42;4.20;;;3.80;;
7501;SDS011;3792;47.740;7.606;2022-08-03T07:04:11;3.97;;;3.57;;
7501;SDS011;3792;47.740;7.606;2022-08-03T07:06:38;6.20;;;3.93;;
7501;SDS011;3792;47.740;7.606;2022-08-03T07:09:05;2.43;;;2.23;;
7501;SDS011;3792;47.740;7.606;2022-08-03T07:11:32;3.53;;;2.47;;
7501;SDS011;3792;47.740;7.606;2022-08-03T07:13:59;2.33;;;2.20;;
7501;SDS011;3792;47.740;7.606;2022-08-03T07:16:26;2.40;;;2.20;;
7501;SDS011;3792;47.740;7.606;2022-08-03T07:18:53;2.50;;;2.30;;
7501;SDS011;3792;47.740;7.606;2022-08-03T07:21:21;2.40;;;2.30;;
7501;SDS011;3792;47.740;7.606;2022-08-03T07:23:49;6.43;;;2.17;;
7501;SDS011;3792;47.740;7.606;2022-08-03T07:26:16;5.43;;;2.27;;
7501;SDS011;3792;47.740;7.606;2022-08-03T07:28:43;3.90;;;2.37;;
7501;SDS011;3792;47.740;7.606;2022-08-03T07:31:10;2.30;;;2.10;;
7501;SDS011;3792;47.740;7.606;2022-08-03T07:33:37;3.50;;;2.20;;
7501;SDS011;3792;47.740;7.606;2022-08-03T07:36:04;3.03;;;1.97;;
7501;SDS011;3792;47.740;7.606;2022-08-03T07:38:32;2.50;;;2.30;;
7501;SDS011;3792;47.740;7.606;2022-08-03T07:41:00;2.70;;;2.50;;
7501;SDS011;3792;47.740;7.606;2022-08-03T07:43:27;3.93;;;2.50;;
7501;SDS011;3792;47.740;7.606;2022-08-03T07:45:55;2.80;;;2.40;;
7501;SDS011;3792;47.740;7.606;2022-08-03T07:48:22;2.80;;;2.53;;
7501;SDS011;3792;47.740;7.606;2022-08-03T07:50:49;2.10;;;2.00;;
7501;SDS011;3792;47.740;7.606;2022-08-03T07:53:16;2.60;;;2.13;;
7501;SDS011;3792;47.740;7.606;2022-08-03T07:55:45;3.00;;;2.20;;
7501;SDS011;3792;47.740;7.606;2022-08-03T07:58:12;2.87;;;2.30;;
7501;SDS011;3792;47.740;7.606;2022-08-03T08:00:41;3.90;;;2.13;;
7501;SDS011;3792;47.740;7.606;2022-08-03T08:03:09;4.07;;;2.20;;
7501;SDS011;3792;47.740;7.606;2022-08-03T08:05:37;6.17;;;2.20;;
7501;SDS011;3792;47.740;7.606;2022-08-03T08:08:05;2.57;;;2.10;;
7501;SDS011;3792;47.740;7.606;2022-08-03T08:10:32;3.67;;;2.20;;
7501;SDS011;3792;47.740;7.606;2022-08-03T08:13:01;2.53;;;2.00;;
7501;SDS011;3792;47.740;7.606;2022-08-03T08:15:29;6.27;;;2.20;;
7501;SDS011;3792;47.740;7.606;2022-08-03T08:17:58;7.47;;;2.43;;
7501;SDS011;3792;47.740;7.606;2022-08-03T08:20:27;2.20;;;2.00;;
7501;SDS011;3792;47.740;7.606;2022-08-03T08:22:57;3.47;;;2.20;;
7501;SDS011;3792;47.740;7.606;2022-08-03T08:25:25;5.37;;;2.03;;
7501;SDS011;3792;47.740;7.606;2022-08-03T08:27:52;2.53;;;2.33;;
7501;SDS011;3792;47.740;7.606;2022-08-03T08:30:21;4.13;;;2.13;;
7501;SDS011;3792;47.740;7.606;2022-08-03T08:32:49;6.50;;;2.30;;
7501;SDS011;3792;47.740;7.606;2022-08-03T08:35:16;2.23;;;1.90;;
7501;SDS011;3792;47.740;7.606;2022-08-03T08:37:44;2.00;;;1.90;;
7501;SDS011;3792;47.740;7.606;2022-08-03T08:40:11;2.53;;;1.70;;
7501;SDS011;3792;47.740;7.606;2022-08-03T08:42:39;2.47;;;2.27;;
7501;SDS011;3792;47.740;7.606;2022-08-03T08:45:07;3.73;;;1.90;;
7501;SDS011;3792;47.740;7.606;2022-08-03T08:47:38;3.10;;;2.03;;
7501;SDS011;3792;47.740;7.606;2022-08-03T08:50:06;2.40;;;2.20;;
7501;SDS011;3792;47.740;7.606;2022-08-03T08:52:35;2.57;;;1.90;;
7501;SDS011;3792;47.740;7.606;2022-08-03T08:55:05;1.87;;;1.77;;
7501;SDS011;3792;47.740;7.606;2022-08-03T08:57:35;2.07;;;1.87;;
7501;SDS011;3792;47.740;7.606;2022-08-03T09:00:04;2.40;;;2.20;;
7501;SDS011;3792;47.740;7.606;2022-08-03T09:02:33;1.93;;;1.70;;
7501;SDS011;3792;47.740;7.606;2022-08-03T09:05:02;3.17;;;1.63;;
7501;SDS011;3792;47.740;7.606;2022-08-03T09:07:29;3.13;;;2.10;;
7501;SDS011;3792;47.740;7.606;2022-08-03T09:09:56;3.13;;;1.87;;
7501;SDS011;3792;47.740;7.606;2022-08-03T09:12:23;2.20;;;2.10;;
7501;SDS011;3792;47.740;7.606;2022-08-03T09:14:50;2.23;;;2.03;;
7501;SDS011;3792;47.740;7.606;2022-08-03T09:17:17;2.57;;;2.00;;
7501;SDS011;3792;47.740;7.606;2022-08-03T09:19:47;3.60;;;2.10;;
7501;SDS011;3792;47.740;7.606;2022-08-03T09:22:33;2.73;;;2.30;;
7501;SDS011;3792;47.740;7.606;2022-08-03T09:25:01;2.53;;;1.97;;
7501;SDS011;3792;47.740;7.606;2022-08-03T09:27:30;2.17;;;1.83;;
7501;SDS011;3792;47.740;7.606;2022-08-03T09:30:11;7.13;;;2.43;;
7501;SDS011;3792;47.740;7.606;2022-08-03T09:32:39;3.03;;;2.10;;
7501;SDS011;3792;47.740;7.606;2022-08-03T09:35:07;2.20;;;2.10;;
7501;SDS011;3792;47.740;7.606;2022-08-03T09:37:35;2.97;;;2.17;;
7501;SDS011;3792;47.740;7.606;2022-08-03T09:40:02;2.87;;;2.20;;
7501;SDS011;3792;47.740;7.606;2022-08-03T09:42:30;4.53;;;2.23;;
7501;SDS011;3792;47.740;7.606;2022-08-03T09:44:59;2.50;;;2.30;;
7501;SDS011;3792;47.740;7.606;2022-08-03T09:47:27;4.50;;;2.27;;
7501;SDS011;3792;47.740;7.606;2022-08-03T09:49:56;3.63;;;2.23;;
7501;SDS011;3792;47.740;7.606;2022-08-03T09:52:30;6.17;;;2.70;;
7501;SDS011;3792;47.740;7.606;2022-08-03T09:54:58;2.53;;;1.90;;
7501;SDS011;3792;47.740;7.606;2022-08-03T09:57:26;4.23;;;2.60;;
7501;SDS011;3792;47.740;7.606;2022-08-03T10:00:04;2.30;;;2.10;;
7501;SDS011;3792;47.740;7.606;2022-08-03T10:02:34;2.33;;;2.10;;
7501;SDS011;3792;47.740;7.606;2022-08-03T10:05:02;2.40;;;2.20;;
7501;SDS011;3792;47.740;7.606;2022-08-03T10:07:40;3.17;;;2.13;;
7501;SDS011;3792;47.740;7.606;2022-08-03T10:10:08;2.50;;;2.20;;
7501;SDS011;3792;47.740;7.606;2022-08-03T10:12:36;3.60;;;2.10;;
7501;SDS011;3792;47.740;7.606;2022-08-03T10:15:03;2.40;;;2.17;;
7501;SDS011;3792;47.740;7.606;2022-08-03T10:17:31;2.60;;;2.17;;
7501;SDS011;3792;47.740;7.606;2022-08-03T10:19:58;2.43;;;2.10;;
7501;SDS011;3792;47.740;7.606;2022-08-03T10:22:26;4.03;;;2.30;;
7501;SDS011;3792;47.740;7.606;2022-08-03T10:24:58;3.43;;;2.13;;
7501;SDS011;3792;47.740;7.606;2022-08-03T10:27:31;2.73;;;2.30;;
7501;SDS011;3792;47.740;7.606;2022-08-03T10:30:00;2.87;;;2.37;;
7501;SDS011;3792;47.740;7.606;2022-08-03T10:32:30;3.07;;;2.40;;
7501;SDS011;3792;47.740;7.606;2022-08-03T10:35:02;2.00;;;1.90;;
7501;SDS011;3792;47.740;7.606;2022-08-03T10:37:31;3.37;;;1.97;;
7501;SDS011;3792;47.740;7.606;2022-08-03T10:40:04;2.50;;;2.20;;
7501;SDS011;3792;47.740;7.606;2022-08-03T10:42:35;2.93;;;2.23;;
7501;SDS011;3792;47.740;7.606;2022-08-03T10:45:03;2.37;;;2.20;;
7501;SDS011;3792;47.740;7.606;2022-08-03T10:47:32;5.00;;;2.40;;
7501;SDS011;3792;47.740;7.606;2022-08-03T10:50:00;2.03;;;1.93;;
7501;SDS011;3792;47.740;7.606;2022-08-03T10:52:28;3.30;;;2.50;;
7501;SDS011;3792;47.740;7.606;2022-08-03T10:54:55;3.00;;;2.43;;
7501;SDS011;3792;47.740;7.606;2022-08-03T10:57:49;2.50;;;2.30;;
7501;SDS011;3792;47.740;7.606;2022-08-03T11:00:18;2.47;;;2.27;;
7501;SDS011;3792;47.740;7.606;2022-08-03T11:03:06;3.10;;;1.90;;
7501;SDS011;3792;47.740;7.606;2022-08-03T11:05:35;2.00;;;1.80;;
7501;SDS011;3792;47.740;7.606;2022-08-03T11:08:23;3.80;;;2.30;;
7501;SDS011;3792;47.740;7.606;2022-08-03T11:10:56;2.00;;;1.90;;
7501;SDS011;3792;47.740;7.606;2022-08-03T11:13:27;2.80;;;2.33;;
7501;SDS011;3792;47.740;7.606;2022-08-03T11:15:58;4.80;;;2.37;;
7501;SDS011;3792;47.740;7.606;2022-08-03T11:18:28;2.37;;;1.93;;
7501;SDS011;3792;47.740;7.606;2022-08-03T11:20:55;2.40;;;1.80;;
7501;SDS011;3792;47.740;7.606;2022-08-03T11:23:40;2.30;;;2.20;;
7501;SDS011;3792;47.740;7.606;2022-08-03T11:26:12;2.10;;;2.00;;
7501;SDS011;3792;47.740;7.606;2022-08-03T11:28:43;3.93;;;2.20;;
7501;SDS011;3792;47.740;7.606;2022-08-03T11:34:13;2.63;;;2.00;;
7501;SDS011;3792;47.740;7.606;2022-08-03T11:39:48;1.57;;;1.53;;
7501;SDS011;3792;47.740;7.606;2022-08-03T11:45:12;1.47;;;1.30;;
7501;SDS011;3792;47.740;7.606;2022-08-03T11:47:40;1.53;;;1.43;;
7501;SDS011;3792;47.740;7.606;2022-08-03T11:50:08;1.47;;;1.17;;
7501;SDS011;3792;47.740;7.606;2022-08-03T11:52:37;1.37;;;1.20;;
7501;SDS011;3792;47.740;7.606;2022-08-03T11:55:11;1.67;;;1.57;;
7501;SDS011;3792;47.740;7.606;2022-08-03T11:57:40;2.53;;;1.50;;
7501;SDS011;3792;47.740;7.606;2022-08-03T12:00:24;1.60;;;1.20;;
7501;SDS011;3792;47.740;7.606;2022-08-03T12:03:00;1.60;;;1.50;;
7501;SDS011;3792;47.740;7.606;2022-08-03T12:05:42;1.40;;;1.30;;
7501;SDS011;3792;47.740;7.606;2022-08-03T12:08:14;1.50;;;1.40;;
7501;SDS011;3792;47.740;7.606;2022-08-03T12:10:46;2.10;;;1.47;;
7501;SDS011;3792;47.740;7.606;2022-08-03T12:13:15;1.50;;;1.40;;
7501;SDS011;3792;47.740;7.606;2022-08-03T12:15:48;1.10;;;1.10;;
7501;SDS011;3792;47.740;7.606;2022-08-03T12:18:17;1.43;;;1.20;;
7501;SDS011;3792;47.740;7.606;2022-08-03T12:20:45;1.60;;;1.50;;
7501;SDS011;3792;47.740;7.606;2022-08-03T12:23:12;1.20;;;1.20;;
7501;SDS011;3792;47.740;7.606;2022-08-03T12:25:40;1.43;;;1.27;;
7501;SDS011;3792;47.740;7.606;2022-08-03T12:28:10;1.40;;;1.30;;
7501;SDS011;3792;47.740;7.606;2022-08-03T12:30:41;1.43;;;1.33;;
7501;SDS011;3792;47.740;7.606;2022-08-03T12:33:20;1.40;;;1.30;;
7501;SDS011;3792;47.740;7.606;2022-08-03T12:36:01;1.63;;;1.10;;
7501;SDS011;3792;47.740;7.606;2022-08-03T12:38:32;1.30;;;1.20;;
7501;SDS011;3792;47.740;7.606;2022-08-03T12:41:03;1.50;;;1.30;;
7501;SDS011;3792;47.740;7.606;2022-08-03T12:43:32;1.57;;;1.47;;
7501;SDS011;3792;47.740;7.606;2022-08-03T12:46:06;2.10;;;1.60;;
7501;SDS011;3792;47.740;7.606;2022-08-03T12:51:33;1.87;;;1.60;;
7501;SDS011;3792;47.740;7.606;2022-08-03T12:54:02;1.30;;;1.30;;
7501;SDS011;3792;47.740;7.606;2022-08-03T12:56:30;1.63;;;1.30;;
7501;SDS011;3792;47.740;7.606;2022-08-03T12:58:57;1.40;;;1.40;;
7501;SDS011;3792;47.740;7.606;2022-08-03T13:01:25;1.43;;;1.30;;
7501;SDS011;3792;47.740;7.606;2022-08-03T13:04:01;1.37;;;1.20;;
7501;SDS011;3792;47.740;7.606;2022-08-03T13:06:31;1.43;;;1.40;;
7501;SDS011;3792;47.740;7.606;2022-08-03T13:09:02;1.53;;;1.40;;
7501;SDS011;3792;47.740;7.606;2022-08-03T13:11:30;1.50;;;1.40;;
7501;SDS011;3792;47.740;7.606;2022-08-03T13:13:58;1.43;;;1.30;;
7501;SDS011;3792;47.740;7.606;2022-08-03T13:16:25;2.43;;;1.70;;
7501;SDS011;3792;47.740;7.606;2022-08-03T13:18:52;1.63;;;1.47;;
7501;SDS011;3792;47.740;7.606;2022-08-03T13:21:20;1.80;;;1.70;;
7501;SDS011;3792;47.740;7.606;2022-08-03T13:23:48;1.50;;;1.40;;
7501;SDS011;3792;47.740;7.606;2022-08-03T13:26:15;1.77;;;1.40;;
7501;SDS011;3792;47.740;7.606;2022-08-03T13:28:42;1.30;;;1.20;;
7501;SDS011;3792;47.740;7.606;2022-08-03T13:31:09;2.47;;;1.43;;
7501;SDS011;3792;47.740;7.606;2022-08-03T13:33:36;1.10;;;1.10;;
7501;SDS011;3792;47.740;7.606;2022-08-03T13:36:05;1.57;;;1.47;;
7501;SDS011;3792;47.740;7.606;2022-08-03T13:38:32;1.47;;;1.37;;
7501;SDS011;3792;47.740;7.606;2022-08-03T13:41:01;1.03;;;1.03;;
7501;SDS011;3792;47.740;7.606;2022-08-03T13:43:28;2.10;;;1.20;;
7501;SDS011;3792;47.740;7.606;2022-08-03T13:45:55;1.43;;;1.33;;
7501;SDS011;3792;47.740;7.606;2022-08-03T13:48:22;2.40;;;1.30;;
7501;SDS011;3792;47.740;7.606;2022-08-03T13:50:50;1.90;;;1.40;;
7501;SDS011;3792;47.740;7.606;2022-08-03T13:53:17;1.20;;;1.10;;
7501;SDS011;3792;47.740;7.606;2022-08-03T13:55:44;1.87;;;1.20;;
7501;SDS011;3792;47.740;7.606;2022-08-03T13:58:12;0.83;;;0.83;;
7501;SDS011;3792;47.740;7.606;2022-08-03T14:00:39;0.83;;;0.83;;
7501;SDS011;3792;47.740;7.606;2022-08-03T14:03:06;1.03;;;0.90;;
7501;SDS011;3792;47.740;7.606;2022-08-03T14:05:34;0.90;;;0.90;;
7501;SDS011;3792;47.740;7.606;2022-08-03T14:08:02;1.40;;;1.10;;
7501;SDS011;3792;47.740;7.606;2022-08-03T14:10:31;1.03;;;1.03;;
7501;SDS011;3792;47.740;7.606;2022-08-03T14:13:00;0.90;;;0.90;;
7501;SDS011;3792;47.740;7.606;2022-08-03T14:15:29;2.53;;;1.30;;
7501;SDS011;3792;47.740;7.606;2022-08-03T14:17:56;2.07;;;0.90;;
7501;SDS011;3792;47.740;7.606;2022-08-03T14:20:23;1.23;;;1.10;;
7501;SDS011;3792;47.740;7.606;2022-08-03T14:22:50;1.77;;;0.97;;
7501;SDS011;3792;47.740;7.606;2022-08-03T14:25:17;1.00;;;1.00;;
7501;SDS011;3792;47.740;7.606;2022-08-03T14:27:44;1.13;;;0.90;;
7501;SDS011;3792;47.740;7.606;2022-08-03T14:30:12;1.27;;;1.07;;
7501;SDS011;3792;47.740;7.606;2022-08-03T14:32:40;2.03;;;0.90;;
7501;SDS011;3792;47.740;7.606;2022-08-03T14:35:08;1.57;;;1.20;;
7501;SDS011;3792;47.740;7.606;2022-08-03T14:37:35;1.57;;;1.27;;
7501;SDS011;3792;47.740;7.606;2022-08-03T14:40:02;1.77;;;1.37;;
7501;SDS011;3792;47.740;7.606;2022-08-03T14:42:30;1.47;;;1.20;;
7501;SDS011;3792;47.740;7.606;2022-08-03T14:44:57;3.10;;;1.23;;
7501;SDS011;3792;47.740;7.606;2022-08-03T14:47:24;1.30;;;1.20;;
7501;SDS011;3792;47.740;7.606;2022-08-03T14:49:53;1.30;;;1.20;;
7501;SDS011;3792;47.740;7.606;2022-08-03T14:52:20;1.60;;;1.10;;
7501;SDS011;3792;47.740;7.606;2022-08-03T14:54:47;1.37;;;1.23;;
7501;SDS011;3792;47.740;7.606;2022-08-03T14:57:14;1.40;;;1.30;;
7501;SDS011;3792;47.740;7.606;2022-08-03T14:59:41;1.10;;;1.10;;
7501;SDS011;3792;47.740;7.606;2022-08-03T15:02:08;1.67;;;1.20;;
7501;SDS011;3792;47.740;7.606;2022-08-03T15:04:35;1.63;;;1.33;;
7501;SDS011;3792;47.740;7.606;2022-08-03T15:07:03;2.97;;;1.27;;
7501;SDS011;3792;47.740;7.606;2022-08-03T15:09:31;1.50;;;1.40;;
7501;SDS011;3792;47.740;7.606;2022-08-03T15:11:58;1.33;;;1.33;;
7501;SDS011;3792;47.740;7.606;2022-08-03T15:14:25;3.57;;;1.47;;
7501;SDS011;3792;47.740;7.606;2022-08-03T15:16:52;2.33;;;1.70;;
7501;SDS011;3792;47.740;7.606;2022-08-03T15:19:19;1.60;;;1.50;;
7501;SDS011;3792;47.740;7.606;2022-08-03T15:21:46;2.20;;;1.57;;
7501;SDS011;3792;47.740;7.606;2022-08-03T15:24:14;1.77;;;1.57;;
7501;SDS011;3792;47.740;7.606;2022-08-03T15:26:41;1.60;;;1.50;;
7501;SDS011;3792;47.740;7.606;2022-08-03T15:29:08;1.67;;;1.57;;
7501;SDS011;3792;47.740;7.606;2022-08-03T15:31:35;2.80;;;1.63;;
7501;SDS011;3792;47.740;7.606;2022-08-03T15:34:02;1.80;;;1.70;;
7501;SDS011;3792;47.740;7.606;2022-08-03T15:36:30;1.63;;;1.53;;
7501;SDS011;3792;47.740;7.606;2022-08-03T15:38:57;1.73;;;1.63;;
7501;SDS011;3792;47.740;7.606;2022-08-03T15:41:26;1.83;;;1.40;;